Pagrindinis puslapis
METAR-TAF:

METAR-TAF

Oro uostai :

Davis, Kalifornija, Jungtinės Amerikos Valstijos

platuma: 38-31-53N, ilguma: 121-47-11W, Aukštis: 21 m

Dabartinis oras

Ataskaita buvo paskelbta 1 valandą ir 9 minutes, ne 21:50 UTC
Vėjas 12 kt iš Šiaurės su gūsio iki 17 kt
Temperatūra 19°C
Drėgmė 21%
Slėgis 1015 hPa
Matomumas: 16.1 km
Giedras dangus

METAR: KEDU 252150Z AUTO 35012G17KT 10SM CLR 19/M04 A2998 RMK AO1

Laikas: 14:59 (22:59 UTC)


TAF: trūkstamas

Orai ataskaitas ir orų prognozės (METAR, TAF).

turimą stotys yra geltonos ir raudonos taškus žemėlapyje.

Perkelti pele per norėdami pamatyti stoties vardą.

Tada spustelėkite, norėdami matyti oro stebėjimo ir prognozės.

Norėdami pakeisti žemėlapį: spustelėkite ant žalios mygtukų su juodo kryžiaus žemyn,; žalią mygtuką su brūkšneliu, jei norite nutolinti; arba žalių rodyklių gretimoms žemėlapius.


METAR-TAF: